• Join FlightAware (Why Join?)
  • Login
  • US Flag 
08:09AM EDT


 

Airport Tracker/Info


-or-


 

Live Flight TrackerFlight Track Log ✈ RPA3457 ✈ 18-May-2013 ✈ KDCA - KMYR

Flight Track Log - Related Links

Times and Time Zones

All times are in EDT time to prevent confusion due to time zone crossing. See the RPA3457 flight status page for this flight to view local times or setup timezone preferences in your user account.

Time Position Orientation Groundspeed Altitude Reporting Facility
EDT Latitude Longitude Course Direction KTS MPH feet Rate Location/Type
10:20AM 38.8047 -77.0381 180° South 172 198 2,400  Level Washington Center
10:20AM 38.7833 -77.0333 170° South 201 231 3,300 2,280 Climbing Potomac TRACON
10:21AM 38.6472 -76.8296 134° Southeast  Level FlightAware Approximate
10:21AM 38.7333 -77.0167 165° South 267 307 5,400  Level Potomac TRACON
10:22AM 38.5850 -76.7516 142° Southeast  Level FlightAware Approximate
10:22AM 38.6833 -76.9333 128° Southeast 275 316 6,000  Level Potomac TRACON
10:23AM 38.5075 -76.7115 171° South  Level FlightAware Approximate
10:23AM 38.6333 -76.8500 128° Southeast 276 318 6,000  Level Potomac TRACON
10:24AM 38.4211 -76.7000 180° South  Level FlightAware Approximate
10:24AM 38.5947 -76.8003 135° Southeast 278 320 6,000  Level Washington Center
10:25AM 38.3469 -76.6833 180° South  Level FlightAware Approximate
10:25AM 38.5514 -76.7306 128° Southeast 288 331 8,200  Level Washington Center
10:26AM 38.4725 -76.7161 172° South 272 313 10,900 2,640 Climbing Washington Center
10:27AM 38.3808 -76.7042 174° South 294 338 13,500 2,520 Climbing Washington Center
10:28AM 38.2994 -76.6897 172° South 324 373 16,000 2,220 Climbing Washington Center
10:29AM 38.2058 -76.6778 174° South 337 388 18,100 2,100 Climbing Washington Center
10:30AM 38.1081 -76.6658 175° South 347 399 20,300 2,100 Climbing Washington Center
10:31AM 38.0081 -76.6511 173° South 358 412 22,300 1,620 Climbing Washington Center
10:32AM 37.9078 -76.6525 181° South 358 412 23,600 1,380 Climbing Washington Center
10:33AM 37.8014 -76.6667 186° South 375 432 25,100 1,380 Climbing Washington Center
10:34AM 37.6947 -76.6808 186° South 388 447 26,500 1,320 Climbing Washington Center
10:35AM 37.5842 -76.6925 185° South 388 447 27,800 720 Climbing Washington Center
10:36AM 37.4756 -76.7092 187° South 388 447 28,000 60 Climbing Washington Center
10:37AM 37.3772 -76.7392 194° South 382 440 28,000  Level Washington Center
10:38AM 37.2767 -76.7819 199° South 377 434 28,000  Level Washington Center
10:39AM 37.1803 -76.8222 198° South 377 434 28,000  Level Washington Center
10:40AM 37.0819 -76.8625 198° South 377 434 28,000  Level Washington Center
10:41AM 36.9875 -76.9050 200° South 372 428 28,000  Level Washington Center
10:42AM 36.8892 -76.9475 199° South 366 421 28,000  Level Washington Center
10:43AM 36.7928 -76.9847 197° South 366 421 28,000  Level Washington Center
10:44AM 36.6961 -77.0244 198° South 366 421 28,000  Level Washington Center
10:45AM 36.5997 -77.0667 199° South 366 421 28,000  Level Washington Center
10:46AM 36.5033 -77.1061 198° South 366 421 28,000  Level Washington Center
10:47AM 36.4089 -77.1456 199° South 366 421 28,000  Level Washington Center
10:48AM 36.3125 -77.1850 198° South 366 421 28,000  Level Washington Center
10:49AM 36.2181 -77.2242 199° South 366 421 28,000  Level Washington Center
10:50AM 36.1111 -77.2631 196° South 366 421 28,000  Level Washington Center
10:51AM 36.0167 -77.3022 199° South 366 421 28,000  Level Washington Center
10:52AM 35.9200 -77.3386 197° South 366 421 28,000  Level Washington Center
10:53AM 35.8256 -77.3775 198° South 366 421 28,000  Level Washington Center
10:54AM 35.7292 -77.4164 198° South 366 421 28,000  Level Washington Center
10:55AM 35.6325 -77.4525 197° South 366 421 28,000  Level Washington Center
10:56AM 35.5381 -77.4936 200° South 366 421 28,000  Level Washington Center
10:57AM 35.4392 -77.5322 198° South 366 421 28,000  Level Washington Center
10:58AM 35.3447 -77.5756 201° Southwest 366 421 28,000  Level Washington Center
10:59AM 35.2642 -77.6475 216° Southwest 366 421 28,000  Level Washington Center
11:00AM 35.1794 -77.7164 214° Southwest 366 421 28,000 -840 Level Washington Center
11:01AM 35.0947 -77.7853 214° Southwest 371 427 26,400 -1,860 Descending Washington Center
11:02AM 35.0122 -77.8542 214° Southwest 371 427 24,400 -1,260 Descending Washington Center
11:03AM 34.9317 -77.9228 215° Southwest 366 421 24,000 -1,080 Descending Washington Center
11:04AM 34.8508 -77.9889 214° Southwest 361 415 22,300 -1,980 Descending Washington Center
11:05AM 34.7744 -78.0547 215° Southwest 356 410 20,100 -2,160 Descending Washington Center
11:06AM 34.6981 -78.1156 213° Southwest 345 397 18,000 -2,100 Descending Washington Center
11:08AM 34.5750 -78.2506 222° Southwest 308 354 14,100 -2,040 Descending Jacksonville Center
11:09AM 34.5258 -78.3314 234° Southwest 298 343 12,200 -1,140 Descending Jacksonville Center
11:10AM 34.4806 -78.4092 235° Southwest 298 343 11,900 -180 Descending Jacksonville Center
11:11AM 34.4356 -78.4897 236° Southwest 298 343 11,900 -300 Level Jacksonville Center
11:12AM 34.3903 -78.5725 236° Southwest 298 343 11,400 -540 Descending Jacksonville Center
11:13AM 34.3428 -78.6478 233° Southwest 293 337 10,900 -660 Descending Jacksonville Center
11:14AM 34.2711 -78.6814 201° Southwest 280 322 10,100 -1,560 Descending Jacksonville Center
11:15AM 34.1992 -78.7150 201° Southwest 275 316 7,800 -2,400 Descending Jacksonville Center
11:16AM 34.1314 -78.7508 204° Southwest 275 316 5,400 -2,400 Descending Jacksonville Center
11:17AM 34.0658 -78.7864 204° Southwest 270 311 3,000 -1,800 Descending Jacksonville Center
11:18AM 34.0022 -78.8219 205° Southwest 264 304 1,900 -1,140 Descending Jacksonville Center